createdAt,value
2019-02-21T00:01:29.588Z,24.92
2019-02-21T00:06:32.425Z,25.72
2019-02-21T00:11:35.882Z,25.12
2019-02-21T00:16:38.906Z,26.62
2019-02-21T00:21:42.071Z,28.92
2019-02-21T00:26:44.981Z,28.55
2019-02-21T00:31:48.211Z,28.15
2019-02-21T00:36:51.287Z,29.48
2019-02-21T00:41:54.579Z,28.57
2019-02-21T00:46:57.757Z,27.00
2019-02-21T00:52:02.694Z,27.42
2019-02-21T00:57:05.763Z,28.40
2019-02-21T01:02:21.185Z,29.07
2019-02-21T01:07:24.595Z,29.48
2019-02-21T01:12:27.460Z,29.48
2019-02-21T01:17:30.396Z,31.17
2019-02-21T01:22:35.632Z,31.75
2019-02-21T01:27:38.495Z,31.17
2019-02-21T01:32:41.660Z,31.82
2019-02-21T01:37:44.432Z,32.75
2019-02-21T01:42:48.128Z,33.00
2019-02-21T01:47:51.103Z,33.18
2019-02-21T01:52:54.290Z,31.27
2019-02-21T01:57:57.135Z,30.62
2019-02-21T02:03:00.122Z,32.73
2019-02-21T02:08:03.642Z,32.63
2019-02-21T02:13:06.277Z,32.15
2019-02-21T02:18:09.108Z,33.10
2019-02-21T02:23:11.647Z,33.10
2019-02-21T02:28:14.580Z,34.00
2019-02-21T02:33:18.526Z,33.23
2019-02-21T02:38:21.371Z,32.05
2019-02-21T02:43:24.842Z,31.82
2019-02-21T02:48:28.325Z,33.75
2019-02-21T02:53:31.399Z,33.10
2019-02-21T02:58:34.550Z,32.78
2019-02-21T03:03:38.621Z,34.43
2019-02-21T03:08:41.458Z,35.35
2019-02-21T03:13:44.196Z,33.73
2019-02-21T03:18:47.104Z,36.20
2019-02-21T03:23:49.997Z,36.58
2019-02-21T03:28:52.948Z,35.63
2019-02-21T03:33:55.713Z,36.50
2019-02-21T03:38:58.629Z,36.75
2019-02-21T03:44:01.567Z,38.02
2019-02-21T03:49:04.276Z,36.25
2019-02-21T03:54:07.109Z,36.63
2019-02-21T03:59:09.990Z,38.38
2019-02-21T04:04:13.557Z,39.48
2019-02-21T04:09:16.543Z,37.50
2019-02-21T04:14:20.964Z,40.60
2019-02-21T04:19:24.171Z,39.18
2019-02-21T04:24:28.234Z,39.78
2019-02-21T04:29:33.213Z,39.95
2019-02-21T04:34:36.035Z,40.48
2019-02-21T04:39:38.757Z,40.03
2019-02-21T04:44:42.195Z,41.40
2019-02-21T04:49:45.078Z,44.40
2019-02-21T04:54:48.159Z,44.15
2019-02-21T04:59:50.937Z,42.95
2019-02-21T05:04:54.194Z,40.92
2019-02-21T05:09:58.552Z,40.83
2019-02-21T05:15:01.906Z,39.58
2019-02-21T05:20:05.253Z,41.20
2019-02-21T05:25:08.012Z,42.38
2019-02-21T05:30:14.868Z,43.98
2019-02-21T05:35:35.872Z,43.02
2019-02-21T05:40:57.151Z,42.30
2019-02-21T05:46:18.000Z,43.80
2019-02-21T05:51:29.457Z,39.45
2019-02-21T05:56:41.548Z,41.48
2019-02-21T06:02:02.257Z,40.65
2019-02-21T06:07:28.665Z,42.10
2019-02-21T06:13:06.941Z,38.27
2019-02-21T06:18:21.863Z,37.15
2019-02-21T06:23:33.653Z,37.53
2019-02-21T06:28:45.699Z,36.23
2019-02-21T06:33:49.720Z,36.40
2019-02-21T06:38:53.049Z,34.43
2019-02-21T06:43:57.008Z,34.85
2019-02-21T06:48:59.757Z,33.40
2019-02-21T06:54:02.718Z,29.10
2019-02-21T06:59:05.529Z,30.35
2019-02-21T07:04:08.425Z,29.10
2019-02-21T07:09:11.633Z,29.30
2019-02-21T07:14:14.534Z,29.32
2019-02-21T07:19:18.255Z,28.38
2019-02-21T07:24:21.696Z,26.85
2019-02-21T07:29:24.924Z,25.92
2019-02-21T07:34:30.241Z,25.72
2019-02-21T07:39:36.159Z,22.80
2019-02-21T07:44:39.602Z,24.57
2019-02-21T07:49:42.760Z,24.37
2019-02-21T07:54:46.129Z,24.70
2019-02-21T07:59:49.417Z,24.52
2019-02-21T08:04:53.043Z,23.27
2019-02-21T08:09:56.090Z,23.95
2019-02-21T08:14:59.087Z,22.02
2019-02-21T08:20:08.525Z,23.38
2019-02-21T08:25:07.978Z,22.25
2019-02-21T08:30:12.459Z,24.02
2019-02-21T08:35:15.481Z,23.73
2019-02-21T08:40:18.225Z,24.50
2019-02-21T08:45:22.694Z,24.15
2019-02-21T08:50:26.001Z,26.12
2019-02-21T08:55:28.765Z,25.23
2019-02-21T09:00:32.042Z,26.20
2019-02-21T09:05:34.716Z,27.58
2019-02-21T09:10:37.803Z,26.93
2019-02-21T09:15:40.669Z,28.40
2019-02-21T09:20:43.968Z,29.25
2019-02-21T09:25:49.498Z,29.90
2019-02-21T09:30:51.516Z,32.60
2019-02-21T09:35:56.759Z,34.78
2019-02-21T09:41:00.184Z,32.50
2019-02-21T09:46:02.905Z,33.65
2019-02-21T09:51:05.993Z,37.60
2019-02-21T09:56:09.370Z,37.35
2019-02-21T10:01:12.330Z,36.53
2019-02-21T10:06:15.185Z,40.23
2019-02-21T10:11:18.737Z,35.98
2019-02-21T10:16:21.858Z,39.10
2019-02-21T10:21:24.756Z,38.92
2019-02-21T10:26:27.865Z,38.15
2019-02-21T10:31:30.685Z,40.17
2019-02-21T10:36:33.374Z,40.43
2019-02-21T10:41:36.259Z,41.88
2019-02-21T10:46:38.779Z,42.70
2019-02-21T10:51:41.665Z,41.90
2019-02-21T10:56:44.721Z,43.05
2019-02-21T11:01:47.851Z,40.95
2019-02-21T11:06:50.708Z,40.40
2019-02-21T11:11:53.895Z,40.58
2019-02-21T11:16:56.529Z,41.10
2019-02-21T11:21:59.097Z,41.95
2019-02-21T11:27:03.530Z,38.13
2019-02-21T11:32:06.384Z,33.73
2019-02-21T11:37:09.645Z,31.17
2019-02-21T11:42:12.586Z,35.52
2019-02-21T11:47:15.217Z,38.55
2019-02-21T11:52:18.110Z,39.83
2019-02-21T11:57:21.368Z,35.08
2019-02-21T12:02:24.399Z,31.20
2019-02-21T12:07:26.924Z,25.57
2019-02-21T12:12:29.546Z,23.70
2019-02-21T12:17:32.646Z,26.37
2019-02-21T12:22:35.604Z,31.93
2019-02-21T12:27:38.711Z,31.75
2019-02-21T12:32:41.480Z,30.25
2019-02-21T12:37:44.327Z,26.52
2019-02-21T12:42:47.669Z,31.33
2019-02-21T12:47:53.602Z,35.95
2019-02-21T12:52:55.156Z,34.55
2019-02-21T12:57:57.985Z,29.70
2019-02-21T13:03:00.911Z,32.10
2019-02-21T13:08:03.865Z,35.65
2019-02-21T13:13:07.051Z,33.78
2019-02-21T13:18:15.843Z,36.63
2019-02-21T13:23:15.334Z,34.65
2019-02-21T13:28:18.068Z,36.58
2019-02-21T13:33:20.892Z,36.90
2019-02-21T13:38:23.549Z,38.92
2019-02-21T13:43:26.192Z,37.65
2019-02-21T13:48:29.393Z,38.55
2019-02-21T13:53:32.399Z,40.15
2019-02-21T13:58:35.656Z,42.45
2019-02-21T14:03:39.219Z,44.50
2019-02-21T14:08:42.138Z,45.33
2019-02-21T14:13:45.056Z,46.90
2019-02-21T14:18:47.969Z,49.80
2019-02-21T14:23:51.465Z,49.83
2019-02-21T14:28:54.644Z,53.13
2019-02-21T14:33:59.046Z,51.28
2019-02-21T14:39:04.335Z,48.90
2019-02-21T14:44:07.270Z,44.95
2019-02-21T14:49:10.152Z,40.25
2019-02-21T14:54:16.240Z,41.53
2019-02-21T14:59:19.952Z,43.85
2019-02-21T15:04:23.185Z,37.38
2019-02-21T15:09:26.877Z,30.45
2019-02-21T15:14:29.843Z,35.00
2019-02-21T15:19:32.713Z,32.95
2019-02-21T15:24:35.897Z,37.00
2019-02-21T15:29:41.499Z,40.70
2019-02-21T15:34:43.950Z,43.28
2019-02-21T15:39:46.642Z,48.90
2019-02-21T15:44:49.407Z,50.63
2019-02-21T15:49:52.239Z,54.73
2019-02-21T15:54:54.979Z,52.43
2019-02-21T15:59:58.157Z,54.35
2019-02-21T16:05:00.995Z,58.35
2019-02-21T16:10:06.890Z,58.25
2019-02-21T16:15:10.600Z,61.10
2019-02-21T16:20:13.745Z,60.50
2019-02-21T16:25:18.658Z,59.27
2019-02-21T16:30:22.147Z,56.77
2019-02-21T16:35:27.214Z,63.10
2019-02-21T16:40:29.415Z,60.12
2019-02-21T16:45:43.081Z,56.05
2019-02-21T16:50:36.908Z,58.85
2019-02-21T16:55:39.902Z,58.25
2019-02-21T17:00:52.692Z,59.88
2019-02-21T17:05:47.745Z,56.40
2019-02-21T17:10:51.149Z,49.70
2019-02-21T17:15:54.039Z,50.95
2019-02-21T17:20:56.821Z,51.25
2019-02-21T17:25:59.923Z,51.02
2019-02-21T17:31:03.003Z,52.48
2019-02-21T17:36:05.859Z,46.48
2019-02-21T17:41:08.527Z,46.73
2019-02-21T17:46:11.328Z,43.30
2019-02-21T17:51:14.429Z,44.40
2019-02-21T17:56:17.868Z,42.50
2019-02-21T18:01:21.632Z,45.08
2019-02-21T18:06:25.328Z,41.92
2019-02-21T18:11:28.733Z,38.70
2019-02-21T18:16:31.622Z,44.70
2019-02-21T18:21:34.500Z,52.17
2019-02-21T18:26:37.410Z,54.35
2019-02-21T18:31:40.564Z,55.00
2019-02-21T18:36:43.462Z,55.92
2019-02-21T18:41:46.465Z,61.20
2019-02-21T18:46:49.818Z,62.67
2019-02-21T18:51:53.738Z,67.20
2019-02-21T18:56:56.621Z,66.60
2019-02-21T19:02:00.072Z,72.90
2019-02-21T19:07:03.064Z,77.82
2019-02-21T19:12:06.042Z,82.75
2019-02-21T19:17:09.182Z,82.20
2019-02-21T19:22:12.324Z,80.47
2019-02-21T19:27:15.308Z,79.65
2019-02-21T19:32:18.449Z,79.03
2019-02-21T19:37:21.773Z,80.10
2019-02-21T19:42:25.085Z,78.05
2019-02-21T19:47:28.012Z,79.67
2019-02-21T19:52:31.598Z,76.10
2019-02-21T19:57:35.014Z,84.25
2019-02-21T20:02:38.173Z,84.97
2019-02-21T20:07:40.996Z,86.10
2019-02-21T20:12:43.674Z,87.42
2019-02-21T20:17:47.018Z,86.28
2019-02-21T20:22:49.868Z,82.92
2019-02-21T20:27:53.133Z,82.62
2019-02-21T20:32:56.788Z,84.17
2019-02-21T20:38:00.104Z,85.65
2019-02-21T20:43:02.958Z,84.13
2019-02-21T20:48:05.814Z,78.28
2019-02-21T20:53:08.647Z,79.65
2019-02-21T20:58:11.884Z,78.72
2019-02-21T21:03:16.205Z,74.58
2019-02-21T21:08:21.128Z,73.10
2019-02-21T21:13:24.189Z,73.15
2019-02-21T21:18:26.887Z,70.80
2019-02-21T21:23:29.777Z,70.95
2019-02-21T21:28:32.750Z,67.90
2019-02-21T21:33:37.681Z,68.42
2019-02-21T21:38:40.560Z,62.53
2019-02-21T21:43:43.642Z,64.25
2019-02-21T21:48:46.414Z,63.40
2019-02-21T21:53:49.049Z,64.53
2019-02-21T21:58:55.408Z,62.43
2019-02-21T22:03:58.556Z,61.53
2019-02-21T22:09:04.754Z,53.60
2019-02-21T22:14:06.302Z,52.17
2019-02-21T22:19:09.688Z,52.48
2019-02-21T22:24:13.696Z,53.60
2019-02-21T22:29:16.831Z,49.05
2019-02-21T22:34:20.168Z,51.05
2019-02-21T22:39:23.115Z,49.65
2019-02-21T22:44:26.866Z,45.88
2019-02-21T22:49:29.852Z,39.60
2019-02-21T22:54:33.221Z,41.42
2019-02-21T22:59:36.561Z,45.58
2019-02-21T23:05:23.509Z,49.55
2019-02-21T23:10:26.884Z,45.92
2019-02-21T23:15:29.834Z,46.25
2019-02-21T23:20:32.668Z,18.10
2019-02-21T23:25:35.572Z,10.82
2019-02-21T23:30:38.640Z,14.23
2019-02-21T23:35:42.676Z,13.48
2019-02-21T23:40:45.664Z,14.58
2019-02-21T23:45:49.970Z,15.58
2019-02-21T23:50:52.932Z,16.77
2019-02-21T23:55:56.479Z,16.35
